EST,Max TemperatureF,Mean TemperatureF,Min TemperatureF,Max Dew PointF,MeanDew PointF,Min DewpointF,Max Humidity, Mean Humidity, Min Humidity, Max Sea Level PressureIn, Mean Sea Level PressureIn, Min Sea Level PressureIn, Max VisibilityMiles, Mean VisibilityMiles, Min VisibilityMiles, Max Wind SpeedMPH, Mean Wind SpeedMPH, Max Gust SpeedMPH,PrecipitationIn, CloudCover, Events, WindDirDegrees
2010-12-1,71,58,44,67,43,27,100,69,36,30.20,30.08,29.90,10,10,7,22,13,32,0.00,3,,285
2010-12-2,55,42,29,32,28,22,99,66,28,30.32,30.24,30.19,10,10,10,8,3,,0.00,0,,301
2010-12-3,64,46,29,41,32,26,97,66,27,30.24,30.17,30.10,10,10,10,12,2,18,0.00,0,,284
2010-12-4,69,54,39,45,40,35,93,62,36,30.14,30.06,29.93,10,10,7,15,5,20,0.00,0,,260
2010-12-5,61,50,39,56,43,28,94,71,41,30.16,30.00,29.88,10,10,10,17,10,22,0.00,2,,298
2010-12-6,48,38,28,28,23,19,83,56,32,30.17,30.11,30.03,10,10,7,18,7,24,0.00,0,,303
2010-12-7,50,39,28,23,18,14,69,47,24,30.13,30.07,30.01,10,10,7,17,8,24,0.00,0,,289
2010-12-8,49,38,26,36,27,18,88,70,43,30.20,30.16,30.12,10,10,10,9,2,,0.00,2,,5
2010-12-9,51,40,30,32,25,19,75,55,37,30.30,30.26,30.20,10,10,7,15,5,18,0.00,1,,29
2010-12-10,54,44,35,46,37,27,87,74,67,30.27,30.22,30.17,10,10,10,10,5,,0.00,5,,22
2010-12-11,53,50,47,51,48,43,99,91,72,30.15,30.11,30.03,10,8,2,8,5,,0.00,8,,2
2010-12-12,61,49,37,54,46,25,100,84,43,29.95,29.71,29.55,10,8,0,24,8,36,0.00,4,,230
2010-12-13,42,36,31,21,18,13,65,49,34,30.02,29.83,29.77,10,10,10,24,14,33,0.00,1,,293
2010-12-14,42,32,22,18,12,9,69,47,25,30.16,30.10,30.04,10,10,10,15,8,18,0.00,0,,299
2010-12-15,51,36,22,28,14,6,79,45,18,30.19,30.14,30.09,10,10,10,8,2,,0.00,2,,306
2010-12-16,70,52,34,38,33,26,90,51,31,30.08,30.01,29.92,10,10,10,20,6,28,0.00,4,,217
2010-12-17,70,62,53,64,56,46,100,85,60,30.06,30.01,29.95,10,10,5,13,8,21,0.00,6,,250
2010-12-18,60,56,51,60,57,51,100,100,97,30.00,29.93,29.85,7,2,0,9,2,,0.00,8,,61
2010-12-19,50,46,41,43,41,39,100,92,72,30.02,29.96,29.90,10,8,3,9,6,17,0.00,7,,340
2010-12-20,54,42,29,37,32,24,100,76,32,30.20,30.14,30.05,10,7,0,9,1,,0.00,0,,53
2010-12-21,64,48,31,43,36,32,100,74,33,30.21,30.16,30.09,10,8,2,10,2,,0.00,0,,225
2010-12-22,69,58,47,61,55,44,100,88,71,30.10,30.00,29.93,10,9,2,15,9,26,0.00,5,,259
2010-12-23,55,48,39,43,35,27,74,56,32,30.22,30.13,30.02,10,10,10,12,6,18,0.00,2,,1
2010-12-24,50,40,31,34,30,25,99,71,38,30.28,30.21,30.16,10,10,10,8,3,,0.00,0,,46
2010-12-25,61,44,28,50,39,29,100,82,52,30.14,30.01,29.83,10,10,4,9,1,,0.00,2,,145
2010-12-26,49,42,36,49,35,23,100,83,58,29.98,29.82,29.64,10,9,4,21,12,34,0.00,8,,298
2010-12-27,48,38,29,28,21,19,73,55,32,30.23,30.12,30.03,10,10,10,16,10,25,0.00,0,,292
2010-12-28,54,39,24,29,23,17,93,60,23,30.35,30.28,30.20,10,10,10,10,4,,0.00,0,,285
2010-12-29,60,44,28,38,29,22,91,63,26,30.22,30.17,30.09,10,10,10,9,3,,0.00,0,,282
2010-12-30,61,46,31,49,40,31,100,84,52,30.24,30.18,30.13,10,7,1,14,3,,0.00,0,,78
2010-12-31,70,56,42,60,53,43,100,89,60,30.26,30.21,30.18,10,6,0,10,4,,0.00,4,,94